Time;durP1;ratioP1;P1;durP2;ratioP2;P2;SDS_P1;SDS_P2;PMS_P1;PMS_P2;Temp;Humidity;BMP_temperature;BMP_pressure;BME280_temperature;BME280_humidity;BME280_pressure;Samples;Min_cycle;Max_cycle;Signal;HPM_P1;HPM_P2
2023/06/09 00:00:28;;;;;;;7.40;5.50;;;16.00;73.00;;;17.95;53.55;97313.59;5062584;28;20037;-64
2023/06/09 00:02:56;;;;;;;6.75;5.72;;;16.00;73.20;;;17.93;53.54;97313.00;5065918;28;20052;-64
2023/06/09 00:05:25;;;;;;;8.05;5.45;;;16.00;73.20;;;17.93;53.53;97313.00;5065065;28;20056;-63
2023/06/09 00:07:55;;;;;;;7.25;6.38;;;16.00;73.20;;;17.88;53.79;97314.47;5060843;28;20049;-64
2023/06/09 00:10:23;;;;;;;6.88;5.90;;;16.00;73.40;;;17.84;53.73;97315.97;5062123;28;20056;-64
2023/06/09 00:12:52;;;;;;;7.78;6.20;;;15.90;73.70;;;17.79;53.78;97318.44;5065411;28;20036;-64
2023/06/09 00:15:21;;;;;;;6.43;5.50;;;15.80;73.80;;;17.75;53.70;97316.38;5065589;28;20075;-64
2023/06/09 00:17:49;;;;;;;7.38;5.63;;;15.80;74.00;;;17.75;53.68;97314.50;5061773;28;20044;-64
2023/06/09 00:20:17;;;;;;;9.27;5.72;;;15.80;73.90;;;17.74;53.81;97309.34;5061813;28;20041;-64
2023/06/09 00:22:45;;;;;;;6.40;5.80;;;15.80;74.10;;;17.72;54.04;97312.28;5064389;28;20045;-65
2023/06/09 00:25:15;;;;;;;9.02;5.50;;;15.80;74.10;;;17.69;53.68;97312.69;5064991;28;20037;-63
2023/06/09 00:27:43;;;;;;;6.53;5.32;;;15.80;73.90;;;17.69;53.85;97312.69;5061084;28;20056;-63
2023/06/09 00:30:14;;;;;;;7.07;5.88;;;15.70;73.80;;;17.66;53.87;97307.72;5056668;28;20049;-63
2023/06/09 00:33:00;;;;;;;8.13;5.70;;;15.70;74.00;;;17.63;53.72;97308.97;5054480;28;20049;-63
2023/06/09 00:35:28;;;;;;;6.70;5.45;;;15.70;74.00;;;17.63;53.61;97318.94;5061179;28;20057;-63
2023/06/09 00:37:56;;;;;;;6.95;4.95;;;15.70;74.00;;;17.61;53.88;97311.06;5063164;28;20420;-63
2023/06/09 00:40:24;;;;;;;7.20;6.03;;;15.70;74.70;;;17.60;53.83;97308.59;5046348;28;20048;-63
2023/06/09 00:42:52;;;;;;;13.48;6.93;;;15.70;73.90;;;17.56;53.94;97304.66;5051766;28;20049;-62
2023/06/09 00:45:19;;;;;;;7.15;6.35;;;15.60;74.30;;;17.48;54.08;97301.19;5059835;28;20060;-63
2023/06/09 00:47:47;;;;;;;6.65;5.45;;;15.50;74.80;;;17.48;54.14;97301.19;5061602;28;20056;-63
2023/06/09 00:50:19;;;;;;;6.60;5.40;;;15.50;74.80;;;17.48;54.05;97303.88;5064809;28;20043;-62
2023/06/09 00:52:48;;;;;;;7.97;6.18;;;15.60;74.50;;;17.47;54.20;97301.41;5060849;28;20412;-62
2023/06/09 00:55:18;;;;;;;7.35;5.75;;;15.60;74.50;;;17.47;54.00;97306.78;5039761;28;20045;-63
2023/06/09 00:57:48;;;;;;;9.20;6.30;;;15.60;74.20;;;17.45;54.10;97311.56;5067566;28;20041;-63
2023/06/09 01:00:18;;;;;;;7.90;6.30;;;15.60;74.10;;;17.42;54.13;97306.59;5059545;28;20041;-63
2023/06/09 01:02:47;;;;;;;8.90;6.88;;;15.50;75.20;;;17.38;54.18;97298.13;5067992;28;20048;-63
2023/06/09 01:05:16;;;;;;;7.43;5.25;;;15.50;74.30;;;17.37;54.07;97301.03;5061021;28;20041;-63
2023/06/09 01:08:24;;;;;;;7.32;5.57;;;15.50;74.50;;;17.31;54.19;97295.47;5061595;28;20412;-63
2023/06/09 01:11:16;;;;;;;5.90;5.10;;;15.40;74.80;;;17.29;54.14;97297.53;5059595;28;20049;-63
2023/06/09 01:14:24;;;;;;;7.75;6.30;;;15.40;75.20;;;17.26;54.16;97295.28;5062323;28;20052;-64
2023/06/09 01:17:11;;;;;;;7.90;5.70;;;15.40;75.20;;;17.24;54.13;97289.28;5059528;28;20049;-64
2023/06/09 01:19:45;;;;;;;7.50;6.40;;;15.40;75.30;;;17.24;54.05;97291.97;5059339;28;20052;-63
2023/06/09 01:22:35;;;;;;;8.18;5.53;;;15.40;74.80;;;17.22;54.30;97304.00;5060868;28;20055;-62
2023/06/09 01:25:22;;;;;;;6.95;5.32;;;15.40;75.00;;;17.19;54.14;97297.16;5051442;28;20098;-62
2023/06/09 01:27:57;;;;;;;6.32;5.00;;;15.40;75.00;;;17.17;54.31;97304.59;5060406;28;20587;-62
2023/06/09 01:30:30;;;;;;;11.23;6.05;;;15.20;74.90;;;17.15;54.37;97305.84;5062398;28;20045;-63
2023/06/09 01:33:00;;;;;;;6.95;5.82;;;15.20;75.10;;;17.13;54.36;97303.38;5042835;28;20045;-63
2023/06/09 01:35:28;;;;;;;6.43;5.57;;;15.20;75.30;;;17.09;54.30;97294.09;5058369;28;20056;-63
2023/06/09 01:37:57;;;;;;;8.65;6.20;;;15.10;75.30;;;17.05;54.61;97292.84;5062169;28;20052;-64
2023/06/09 01:40:26;;;;;;;7.82;5.57;;;15.10;75.70;;;17.04;54.56;97297.41;5062532;28;20052;-63
2023/06/09 01:42:59;;;;;;;7.60;5.45;;;15.10;76.10;;;17.01;54.66;97289.75;5042744;28;20045;-63
2023/06/09 01:45:27;;;;;;;10.15;6.20;;;15.00;76.10;;;16.99;54.49;97286.44;5058741;28;20052;-63
2023/06/09 01:47:55;;;;;;;7.93;5.93;;;15.00;76.00;;;16.97;54.67;97280.47;5066489;28;20053;-63
2023/06/09 01:50:48;;;;;;;10.02;5.88;;;15.00;76.00;;;16.93;54.63;97284.63;5059039;28;20041;-63
2023/06/09 01:53:25;;;;;;;8.32;5.93;;;14.90;76.00;;;16.89;54.67;97286.88;5052590;28;20037;-64
2023/06/09 01:56:07;;;;;;;6.65;5.28;;;14.80;76.10;;;16.87;54.79;97293.53;5043831;28;20477;-63
2023/06/09 01:58:44;;;;;;;7.15;5.70;;;14.90;76.30;;;16.86;54.69;97295.38;5062321;28;20045;-63
2023/06/09 02:01:17;;;;;;;7.07;5.88;;;14.80;76.40;;;16.82;55.00;97298.69;5052098;28;20045;-63
2023/06/09 02:03:47;;;;;;;10.40;6.80;;;14.80;76.90;;;16.81;54.97;97297.00;5059798;28;20045;-63
2023/06/09 02:06:18;;;;;;;6.60;5.60;;;14.80;77.10;;;16.79;55.15;97299.91;5061085;28;20048;-63
2023/06/09 02:08:47;;;;;;;7.78;5.85;;;14.80;77.20;;;16.79;55.08;97299.91;5062152;28;20052;-63
2023/06/09 02:11:16;;;;;;;10.65;6.55;;;14.80;76.80;;;16.80;55.02;97295.34;5058395;28;20049;-63
2023/06/09 02:13:53;;;;;;;7.07;5.72;;;14.80;76.60;;;16.77;54.89;97287.69;5057134;28;20041;-63
2023/06/09 02:16:22;;;;;;;7.65;5.93;;;14.80;76.90;;;16.72;55.20;97294.53;5061236;28;20049;-63
2023/06/09 02:18:52;;;;;;;9.77;6.72;;;14.80;77.20;;;16.71;55.20;97289.34;5059580;28;20053;-63
2023/06/09 02:21:20;;;;;;;7.97;6.03;;;14.80;77.00;;;16.72;55.08;97289.16;5059914;28;20037;-63
2023/06/09 02:23:47;;;;;;;8.13;6.28;;;14.80;76.60;;;16.71;54.88;97292.91;5059247;28;20053;-63
2023/06/09 02:26:15;;;;;;;8.63;5.93;;;14.80;76.40;;;16.71;55.10;97290.22;5060853;28;20056;-63
2023/06/09 02:28:43;;;;;;;7.85;6.85;;;14.80;76.30;;;16.70;55.21;97285.03;5062079;28;20052;-63
2023/06/09 02:31:11;;;;;;;9.60;6.75;;;14.80;76.80;;;16.67;55.45;97280.06;5057985;28;20041;-63
2023/06/09 02:33:39;;;;;;;8.73;6.63;;;14.80;77.00;;;16.66;55.22;97278.44;5054584;28;20425;-63
2023/06/09 02:36:07;;;;;;;10.93;7.85;;;14.70;76.90;;;16.65;55.19;97280.28;5060861;28;20059;-63
2023/06/09 02:38:35;;;;;;;8.68;7.20;;;14.70;77.00;;;16.64;55.35;97280.50;5061164;28;20052;-63
2023/06/09 02:41:03;;;;;;;8.13;6.43;;;14.80;77.10;;;16.63;55.33;97279.66;5057949;28;20425;-63
2023/06/09 02:43:31;;;;;;;9.10;7.28;;;14.80;77.10;;;16.60;55.39;97284.66;5058470;28;20123;-63
2023/06/09 02:45:58;;;;;;;11.98;8.15;;;14.70;77.50;;;16.59;55.28;97288.34;5059092;28;20446;-63
2023/06/09 02:48:26;;;;;;;9.27;7.75;;;14.70;77.60;;;16.57;55.55;97280.50;5061300;28;20040;-63
2023/06/09 02:50:53;;;;;;;8.90;7.53;;;14.60;77.70;;;16.51;55.63;97279.47;5059665;28;20040;-63
2023/06/09 02:53:24;;;;;;;8.77;7.65;;;14.50;78.20;;;16.52;55.80;97280.31;5057981;28;20044;-63
2023/06/09 02:55:51;;;;;;;10.65;7.72;;;14.60;78.50;;;16.53;55.93;97288.13;5060935;28;20048;-63
2023/06/09 02:58:24;;;;;;;9.68;7.60;;;14.60;78.50;;;16.54;55.92;97286.28;5061297;28;20041;-62
2023/06/09 03:00:55;;;;;;;10.82;8.57;;;14.70;78.50;;;16.55;55.78;97296.00;5052658;28;20060;-63
2023/06/09 03:03:22;;;;;;;10.75;7.90;;;14.70;78.50;;;16.55;55.86;97290.63;5063351;28;20526;-63
2023/06/09 03:05:52;;;;;;;11.18;8.75;;;14.70;78.50;;;16.56;55.98;97289.59;5046386;28;20044;-63
2023/06/09 03:08:20;;;;;;;11.18;8.45;;;14.70;78.60;;;16.56;56.04;97288.78;5061507;28;20037;-64
2023/06/09 03:10:47;;;;;;;9.00;7.65;;;14.70;78.60;;;16.53;55.83;97296.19;5063718;28;20049;-64
2023/06/09 03:13:17;;;;;;;10.30;8.75;;;14.70;78.60;;;16.52;55.81;97302.63;5049060;28;20044;-64
2023/06/09 03:15:50;;;;;;;9.60;8.13;;;14.60;78.40;;;16.50;55.93;97301.19;5063641;28;20049;-65
2023/06/09 03:18:19;;;;;;;12.60;8.73;;;14.60;78.60;;;16.48;56.38;97300.56;5061562;28;20284;-64
2023/06/09 03:20:48;;;;;;;11.27;8.45;;;14.60;79.20;;;16.49;56.03;97300.34;5062201;28;20041;-64
2023/06/09 03:23:20;;;;;;;9.75;8.35;;;14.60;79.20;;;16.47;55.97;97298.91;5065043;28;20503;-64
2023/06/09 03:25:51;;;;;;;13.05;8.65;;;14.60;79.30;;;16.44;56.31;97294.78;5063369;28;20504;-63
2023/06/09 03:28:22;;;;;;;10.88;8.07;;;14.60;79.60;;;16.47;56.30;97298.91;5061487;28;20420;-63
2023/06/09 03:30:50;;;;;;;9.65;8.10;;;14.60;80.00;;;16.47;56.73;97294.34;5058096;28;20531;-64
2023/06/09 03:33:19;;;;;;;11.35;8.82;;;14.70;80.30;;;16.51;56.62;97292.88;5064824;28;20067;-63
2023/06/09 03:35:49;;;;;;;9.88;8.23;;;14.70;80.30;;;16.51;56.58;97290.22;5063778;28;20055;-63
2023/06/09 03:38:20;;;;;;;9.70;7.43;;;14.80;80.10;;;16.51;56.56;97292.88;5061562;28;20378;-64
2023/06/09 03:40:48;;;;;;;10.70;8.20;;;14.90;79.80;;;16.51;56.81;97292.88;5061571;28;20424;-64
2023/06/09 03:43:16;;;;;;;10.90;8.82;;;14.90;80.00;;;16.53;57.07;97288.13;5064673;28;20416;-63
2023/06/09 03:45:44;;;;;;;11.90;9.48;;;14.80;80.30;;;16.56;56.99;97284.22;5064288;28;20063;-63
2023/06/09 03:48:12;;;;;;;10.80;9.02;;;14.90;80.70;;;16.60;57.13;97298.06;5052640;28;20044;-64
2023/06/09 03:50:40;;;;;;;12.70;9.32;;;14.90;81.00;;;16.62;57.17;97286.06;5062490;28;20049;-63
2023/06/09 03:53:10;;;;;;;10.93;9.43;;;14.90;81.30;;;16.66;57.27;97292.69;5047563;28;20040;-63
2023/06/09 03:55:39;;;;;;;10.73;8.48;;;15.00;81.30;;;16.67;57.43;97288.13;5063716;28;20036;-63
2023/06/09 03:58:10;;;;;;;12.13;8.77;;;14.90;81.70;;;16.68;57.33;97284.41;5060981;28;20052;-63
2023/06/09 04:00:38;;;;;;;12.38;9.70;;;15.00;81.90;;;16.71;57.40;97292.91;5061004;28;20052;-64
2023/06/09 04:03:07;;;;;;;11.73;10.07;;;15.00;81.70;;;16.73;57.34;97292.69;5068790;28;20516;-63
2023/06/09 04:05:35;;;;;;;10.35;8.50;;;15.00;81.70;;;16.76;57.26;97291.44;5060494;28;20045;-63
2023/06/09 04:08:03;;;;;;;11.50;8.95;;;15.10;81.80;;;16.78;57.17;97297.44;5062314;28;20049;-63
2023/06/09 04:10:32;;;;;;;11.68;9.02;;;15.00;81.60;;;16.79;57.31;97294.53;5064192;28;20048;-63
2023/06/09 04:13:00;;;;;;;9.95;8.95;;;15.10;81.60;;;16.79;57.09;97304.44;5063708;28;20044;-64
2023/06/09 04:15:28;;;;;;;11.43;8.25;;;15.00;81.30;;;16.78;57.02;97297.44;5060520;28;20413;-63
2023/06/09 04:17:58;;;;;;;10.60;8.55;;;15.00;81.50;;;16.79;57.31;97296.38;5061325;28;20056;-63
2023/06/09 04:20:30;;;;;;;9.63;8.43;;;15.00;81.80;;;16.81;57.29;97300.53;5048219;28;20041;-63
2023/06/09 04:22:59;;;;;;;11.70;9.02;;;15.10;82.20;;;16.81;57.29;97300.53;5062237;28;20052;-63
2023/06/09 04:25:34;;;;;;;10.95;8.82;;;15.10;82.30;;;16.84;57.41;97299.31;5059703;28;20373;-63
2023/06/09 04:28:08;;;;;;;11.93;9.35;;;15.10;82.40;;;16.85;57.54;97299.09;5062340;28;20045;-63
2023/06/09 04:30:38;;;;;;;11.48;8.82;;;15.20;82.60;;;16.86;57.92;97302.63;5047766;28;20040;-63
2023/06/09 04:33:09;;;;;;;11.25;8.80;;;15.30;82.50;;;16.86;57.87;97297.22;5061223;28;20044;-63
2023/06/09 04:35:40;;;;;;;13.60;8.80;;;15.40;82.10;;;16.93;57.73;97296.19;5058359;28;20052;-63
2023/06/09 04:38:10;;;;;;;11.10;8.60;;;15.40;81.70;;;16.99;57.73;97293.69;5062074;28;20064;-63
2023/06/09 04:40:39;;;;;;;9.85;8.30;;;15.50;81.50;;;17.01;57.88;97294.31;5063240;28;20048;-63
2023/06/09 04:43:09;;;;;;;10.60;8.00;;;15.60;81.10;;;17.04;57.63;97289.34;5061115;28;20049;-63
2023/06/09 04:45:39;;;;;;;9.57;8.05;;;15.70;80.70;;;17.10;57.50;97291.19;5059690;28;20075;-63
2023/06/09 04:48:12;;;;;;;11.88;9.13;;;15.70;80.40;;;17.17;57.55;97293.03;5061707;28;20543;-63
2023/06/09 04:50:44;;;;;;;12.32;8.93;;;15.80;80.40;;;17.22;57.27;97293.22;5063410;28;20044;-63
2023/06/09 04:53:12;;;;;;;10.77;9.68;;;15.70;80.10;;;17.19;57.43;97296.31;5060178;28;20072;-63
2023/06/09 04:55:45;;;;;;;10.90;8.10;;;15.80;79.80;;;17.19;57.45;97299.03;5059377;28;20052;-63
2023/06/09 04:58:15;;;;;;;11.38;8.75;;;15.80;79.80;;;17.22;57.18;97298.59;5062203;28;20504;-63
2023/06/09 05:00:43;;;;;;;11.32;8.65;;;15.80;79.50;;;17.19;57.55;97305.22;5063309;28;20424;-63
2023/06/09 05:03:13;;;;;;;12.35;8.77;;;15.80;79.30;;;17.23;57.25;97306.44;5054618;28;20045;-63
2023/06/09 05:05:42;;;;;;;11.82;8.65;;;15.80;79.30;;;17.28;57.20;97295.88;5063873;28;20222;-62
2023/06/09 05:08:10;;;;;;;10.57;9.48;;;15.90;79.30;;;17.34;57.24;97306.84;5060098;28;20538;-63
2023/06/09 05:10:39;;;;;;;10.13;8.98;;;15.80;79.40;;;17.38;57.16;97308.88;5039942;28;20057;-63
2023/06/09 05:13:08;;;;;;;12.13;9.57;;;15.80;79.60;;;17.42;57.10;97311.97;5060991;28;20060;-63
2023/06/09 05:15:35;;;;;;;10.95;8.30;;;15.80;79.50;;;17.46;57.20;97311.31;5062315;28;20059;-62
2023/06/09 05:18:04;;;;;;;12.82;9.23;;;15.90;79.90;;;17.51;57.00;97311.53;5061114;28;20052;-62
2023/06/09 05:20:32;;;;;;;10.15;8.35;;;16.00;80.20;;;17.57;57.16;97311.72;5060775;28;20464;-61
2023/06/09 05:22:59;;;;;;;11.82;9.02;;;16.00;80.10;;;17.60;57.30;97314.81;5059738;28;20416;-61
2023/06/09 05:25:27;;;;;;;11.85;10.13;;;16.10;80.50;;;17.60;57.42;97324.72;5062177;28;20052;-62
2023/06/09 05:27:55;;;;;;;10.63;8.85;;;16.10;80.40;;;17.65;57.51;97331.13;5062312;28;20060;-61
2023/06/09 05:30:22;;;;;;;12.80;8.93;;;16.20;80.70;;;17.68;57.51;97319.09;5058815;28;20045;-61
2023/06/09 05:32:50;;;;;;;12.18;10.88;;;16.30;80.80;;;17.68;57.51;97319.09;5055443;28;20060;-61
2023/06/09 05:35:20;;;;;;;12.73;9.93;;;16.20;80.60;;;17.73;57.85;97321.97;5060965;28;20071;-61
2023/06/09 05:37:52;;;;;;;13.80;10.52;;;16.30;80.90;;;17.79;57.82;97328.38;5062379;28;20048;-61
2023/06/09 05:40:23;;;;;;;12.55;10.02;;;16.30;81.30;;;17.83;57.95;97330.41;5042773;28;20045;-61
2023/06/09 05:42:50;;;;;;;13.48;9.13;;;16.30;81.60;;;17.86;58.04;97327.34;5060523;28;20476;-61
2023/06/09 05:45:18;;;;;;;15.30;10.88;;;16.30;82.00;;;17.92;58.02;97332.91;5063018;28;20048;-60
2023/06/09 05:47:46;;;;;;;12.88;10.00;;;16.40;82.20;;;17.96;58.00;97331.44;5063101;28;20423;-61
2023/06/09 05:50:13;;;;;;;13.18;10.65;;;16.50;82.40;;;17.98;58.05;97327.47;5061132;28;20048;-60
2023/06/09 05:52:41;;;;;;;11.75;9.73;;;16.50;82.50;;;18.01;58.09;97331.59;5059894;28;20071;-60
2023/06/09 05:55:09;;;;;;;11.43;9.68;;;16.60;82.40;;;18.05;58.19;97338.22;5061556;28;20048;-60
2023/06/09 05:57:36;;;;;;;12.88;10.90;;;16.60;82.50;;;18.10;58.21;97341.06;5063254;28;20044;-62
2023/06/09 06:00:09;;;;;;;11.13;9.95;;;16.60;82.80;;;18.16;58.19;97339.38;5062438;28;20060;-63
2023/06/09 06:02:39;;;;;;;13.18;10.50;;;16.70;82.70;;;18.20;58.07;97346.00;5060414;28;20523;-63
2023/06/09 06:05:08;;;;;;;12.48;9.98;;;16.70;83.10;;;18.23;58.27;97341.00;5059752;28;20047;-62
2023/06/09 06:07:37;;;;;;;12.90;10.32;;;16.70;82.70;;;18.27;58.23;97344.09;5059738;28;20397;-64
2023/06/09 06:10:06;;;;;;;12.73;10.95;;;16.80;82.40;;;18.32;58.18;97338.03;5060551;28;20041;-62
2023/06/09 06:12:34;;;;;;;13.85;10.27;;;16.90;82.30;;;18.38;58.19;97346.09;5062836;28;20045;-61
2023/06/09 06:15:02;;;;;;;12.07;10.60;;;17.00;82.20;;;18.41;58.17;97353.72;5062689;28;20055;-62
2023/06/09 06:17:29;;;;;;;13.27;9.90;;;17.00;82.10;;;18.44;58.27;97347.91;5059512;28;20040;-62
2023/06/09 06:19:57;;;;;;;13.20;9.40;;;17.10;81.80;;;18.49;58.27;97341.84;5059839;28;20049;-63
2023/06/09 06:22:25;;;;;;;11.93;10.68;;;17.20;81.60;;;18.57;58.00;97352.38;5059830;28;20041;-63
2023/06/09 06:24:53;;;;;;;12.63;10.35;;;17.20;81.30;;;18.62;58.07;97351.72;5059727;28;20048;-62
2023/06/09 06:27:20;;;;;;;10.25;9.23;;;17.30;81.10;;;18.66;58.04;97344.81;5062113;28;20056;-63
2023/06/09 06:29:48;;;;;;;11.50;9.25;;;17.40;80.80;;;18.71;57.72;97353.09;5062861;28;20056;-64
2023/06/09 06:32:15;;;;;;;10.70;9.57;;;17.40;80.40;;;18.78;57.64;97353.03;5058002;28;20059;-64
2023/06/09 06:34:43;;;;;;;8.77;7.88;;;17.50;80.00;;;18.83;57.45;97356.75;5064635;28;20045;-63
2023/06/09 06:37:11;;;;;;;10.23;8.75;;;17.50;79.60;;;18.88;57.13;97356.91;5060319;28;20503;-64
2023/06/09 06:39:39;;;;;;;9.52;8.48;;;17.60;78.90;;;18.94;56.96;97351.66;5059339;28;20052;-63
2023/06/09 06:42:07;;;;;;;10.10;9.05;;;17.60;78.60;;;19.00;56.80;97351.63;5059673;28;20064;-64
2023/06/09 06:44:51;;;;;;;10.73;9.25;;;17.70;78.30;;;19.04;56.84;97347.41;5060031;28;20049;-65
2023/06/09 06:47:20;;;;;;;13.02;7.68;;;17.70;77.90;;;19.10;56.67;97344.91;5061244;28;20060;-64
2023/06/09 06:49:48;;;;;;;9.18;8.18;;;17.80;77.60;;;19.15;56.73;97347.72;5062862;28;20052;-64
2023/06/09 06:52:15;;;;;;;9.77;8.70;;;17.90;77.60;;;19.19;56.69;97340.84;5060956;28;20052;-63
2023/06/09 06:54:43;;;;;;;10.63;9.55;;;17.90;77.30;;;19.25;56.83;97342.63;5058978;28;20056;-63
2023/06/09 06:57:10;;;;;;;11.70;9.13;;;18.00;77.30;;;19.31;56.78;97349.00;5050451;28;20056;-64
2023/06/09 06:59:38;;;;;;;9.65;8.65;;;18.10;77.30;;;19.36;56.57;97341.06;5059155;28;20049;-62
2023/06/09 07:02:06;;;;;;;10.27;9.07;;;18.10;77.10;;;19.43;56.41;97358.03;5059185;28;20505;-62
2023/06/09 07:04:33;;;;;;;9.90;8.68;;;18.20;76.50;;;19.48;56.52;97352.75;5061745;28;20275;-63
2023/06/09 07:07:02;;;;;;;12.32;8.43;;;18.30;76.50;;;19.55;56.40;97358.09;5062617;28;20056;-62
2023/06/09 07:09:30;;;;;;;10.32;9.30;;;18.40;76.20;;;19.61;56.27;97357.19;5054842;28;20049;-62
2023/06/09 07:11:57;;;;;;;9.98;8.98;;;18.40;76.00;;;19.64;56.20;97359.44;5062847;28;20052;-62
2023/06/09 07:14:25;;;;;;;9.30;8.23;;;18.50;75.60;;;19.70;55.78;97369.34;5059812;28;20056;-63
2023/06/09 07:16:53;;;;;;;11.38;9.68;;;18.50;75.30;;;19.73;56.05;97368.91;5058673;28;20041;-63
2023/06/09 07:19:20;;;;;;;13.13;10.73;;;18.60;75.20;;;19.78;56.12;97369.06;5060945;28;20048;-63
2023/06/09 07:21:48;;;;;;;10.98;9.80;;;18.60;75.40;;;19.84;56.05;97365.44;5061502;28;20419;-63
2023/06/09 07:24:16;;;;;;;10.77;9.23;;;18.60;75.20;;;19.90;55.60;97373.72;5061114;28;20041;-63
2023/06/09 07:26:44;;;;;;;11.18;9.18;;;18.70;75.00;;;19.95;55.96;97374.69;5058701;28;20052;-61
2023/06/09 07:29:11;;;;;;;10.77;9.68;;;18.80;74.90;;;19.99;55.85;97370.47;5059275;28;20421;-62
2023/06/09 07:31:39;;;;;;;10.90;8.60;;;18.80;74.70;;;20.05;55.92;97377.66;5062478;28;20048;-62
2023/06/09 07:34:07;;;;;;;10.18;8.45;;;18.80;74.80;;;20.11;55.74;97367.81;5062481;28;20071;-62
2023/06/09 07:36:37;;;;;;;9.00;7.63;;;19.00;74.50;;;20.18;55.44;97375.81;5049882;28;20045;-61
2023/06/09 07:39:05;;;;;;;11.75;9.38;;;19.10;74.00;;;20.26;55.57;97370.91;5058039;28;20045;-62
2023/06/09 07:41:32;;;;;;;12.15;10.85;;;19.20;74.00;;;20.33;55.50;97367.28;5061218;28;20500;-61
2023/06/09 07:44:00;;;;;;;10.50;8.95;;;19.20;73.70;;;20.38;55.49;97372.84;5062354;28;20523;-61
2023/06/09 07:46:30;;;;;;;9.10;7.65;;;19.20;73.50;;;20.44;54.94;97371.91;5059201;28;20207;-61
2023/06/09 07:48:58;;;;;;;8.90;7.97;;;19.30;72.90;;;20.52;54.33;97376.16;5059887;28;20326;-61
2023/06/09 07:51:26;;;;;;;9.43;8.48;;;19.30;71.70;;;20.57;54.22;97374.41;5064467;28;20044;-62
2023/06/09 07:53:54;;;;;;;8.27;7.43;;;19.40;71.50;;;20.63;54.36;97378.13;5065815;28;20055;-61
2023/06/09 07:56:23;;;;;;;8.90;7.68;;;19.50;71.40;;;20.68;54.17;97375.50;5063436;28;20047;-61
2023/06/09 07:58:51;;;;;;;8.65;7.38;;;19.50;71.50;;;20.73;54.05;97375.66;5062217;28;20040;-62
2023/06/09 08:01:19;;;;;;;8.82;7.28;;;19.60;71.30;;;20.76;53.69;97374.34;5061829;28;20049;-62
2023/06/09 08:03:47;;;;;;;7.07;5.55;;;19.60;70.30;;;20.82;53.25;97376.13;5064357;28;20051;-61
2023/06/09 08:06:15;;;;;;;8.18;6.72;;;19.70;69.40;;;20.90;52.54;97364.13;5064310;28;20055;-61
2023/06/09 08:08:43;;;;;;;6.40;5.50;;;19.80;68.40;;;20.95;52.88;97366.97;5062177;28;20445;-62
2023/06/09 08:11:11;;;;;;;7.60;5.53;;;19.80;68.10;;;21.02;52.21;97357.69;5060020;28;20124;-61
2023/06/09 08:13:39;;;;;;;7.50;5.50;;;19.90;67.80;;;21.11;52.21;97366.28;5064265;28;20063;-61
2023/06/09 08:16:06;;;;;;;6.85;6.13;;;20.00;66.80;;;21.18;51.70;97356.13;5064759;28;20044;-62
2023/06/09 08:18:34;;;;;;;8.25;5.93;;;20.10;66.10;;;21.24;51.40;97351.66;5062316;28;20405;-61
2023/06/09 08:21:02;;;;;;;7.97;5.22;;;20.10;65.20;;;21.30;50.88;97356.13;5061857;28;20147;-62
2023/06/09 08:23:30;;;;;;;7.65;5.03;;;20.20;64.80;;;21.35;50.82;97353.53;5063887;28;20053;-61
2023/06/09 08:25:57;;;;;;;5.70;5.10;;;20.30;64.50;;;21.42;50.64;97353.41;5064783;28;20056;-62
2023/06/09 08:28:25;;;;;;;5.80;5.20;;;20.40;64.20;;;21.48;50.27;97352.50;5062566;28;20055;-61
2023/06/09 08:30:53;;;;;;;4.50;4.10;;;20.40;63.60;;;21.56;50.27;97348.59;5061524;28;20045;-61
2023/06/09 08:33:22;;;;;;;6.65;5.15;;;20.50;63.80;;;21.62;49.97;97345.75;5062210;28;20402;-61
2023/06/09 08:35:50;;;;;;;5.68;5.15;;;20.50;63.60;;;21.68;50.27;97345.88;5064190;28;20059;-61
2023/06/09 08:38:17;;;;;;;6.65;5.00;;;20.60;63.70;;;21.72;49.82;97339.72;5064195;28;20044;-61
2023/06/09 08:40:48;;;;;;;6.57;4.95;;;20.70;63.00;;;21.77;50.01;97344.41;5061776;28;20381;-62
2023/06/09 08:43:16;;;;;;;6.07;5.35;;;20.70;62.70;;;21.84;50.31;97342.38;5060426;28;20052;-61
2023/06/09 08:45:48;;;;;;;7.43;5.72;;;20.70;64.00;;;21.88;50.91;97346.25;5063004;28;20056;-61
2023/06/09 08:48:18;;;;;;;6.53;5.93;;;20.80;64.40;;;21.94;49.98;97328.22;5063313;28;20423;-61
2023/06/09 08:50:47;;;;;;;7.82;6.47;;;20.90;63.80;;;21.98;49.58;97332.94;5040201;28;20528;-61
2023/06/09 08:53:15;;;;;;;10.48;6.80;;;20.90;63.20;;;22.02;50.14;97328.66;5057736;28;20049;-62
2023/06/09 08:55:44;;;;;;;7.82;6.00;;;21.00;63.60;;;22.08;50.03;97340.44;5051675;28;20598;-61
2023/06/09 08:58:15;;;;;;;6.40;5.72;;;21.00;63.80;;;22.17;49.69;97328.09;5059477;28;20068;-61
2023/06/09 09:00:43;;;;;;;6.75;6.13;;;21.10;62.70;;;22.26;49.65;97330.47;5052408;28;20041;-61
2023/06/09 09:03:11;;;;;;;8.43;6.15;;;21.20;62.90;;;22.27;49.36;97330.22;5060749;28;20052;-61
2023/06/09 09:05:39;;;;;;;6.90;5.88;;;21.30;63.00;;;22.34;49.88;97330.88;5063292;28;20514;-61
2023/06/09 09:08:08;;;;;;;6.90;5.90;;;21.30;63.10;;;22.39;49.55;97338.28;5064070;28;20044;-61
2023/06/09 09:10:38;;;;;;;5.85;5.15;;;21.40;62.40;;;22.44;49.10;97337.56;5061526;28;20048;-62
2023/06/09 09:13:10;;;;;;;7.55;6.35;;;21.40;62.20;;;22.47;49.15;97337.91;5060823;28;20049;-61
2023/06/09 09:15:47;;;;;;;7.10;5.55;;;21.40;61.90;;;22.51;49.38;97336.34;5062996;28;20554;-61
2023/06/09 09:18:17;;;;;;;8.13;6.10;;;21.40;61.30;;;22.56;49.02;97336.41;5064170;28;20047;-61
2023/06/09 09:20:45;;;;;;;7.95;5.85;;;21.50;61.70;;;22.61;49.03;97335.69;5052847;28;20056;-61
2023/06/09 09:23:14;;;;;;;7.63;6.82;;;21.50;61.60;;;22.67;48.69;97339.31;5060618;28;20304;-61
2023/06/09 09:25:43;;;;;;;6.47;5.72;;;21.60;61.30;;;22.69;48.95;97345.31;5063316;28;20420;-61
2023/06/09 09:28:13;;;;;;;7.70;6.60;;;21.60;61.60;;;22.75;48.33;97345.13;5062128;28;20307;-61
2023/06/09 09:30:51;;;;;;;7.68;6.30;;;21.70;61.20;;;22.80;48.32;97330.84;5059074;28;20055;-61
2023/06/09 09:33:24;;;;;;;6.80;6.10;;;21.70;60.30;;;22.86;48.02;97340.69;5055122;28;20041;-61
2023/06/09 09:35:59;;;;;;;7.65;6.28;;;21.80;60.40;;;22.94;48.03;97329.41;5062559;28;20047;-61
2023/06/09 09:38:30;;;;;;;5.93;5.40;;;21.90;60.60;;;23.01;48.21;97334.66;5062504;28;20048;-61
2023/06/09 09:41:00;;;;;;;6.53;4.80;;;21.90;60.60;;;23.07;47.87;97338.31;5060126;28;20041;-61
2023/06/09 09:43:29;;;;;;;6.35;5.75;;;22.00;59.90;;;23.13;47.79;97324.56;5061142;28;20047;-61
2023/06/09 09:46:04;;;;;;;6.72;6.03;;;22.10;59.70;;;23.18;47.58;97319.19;5063091;28;20040;-61
2023/06/09 09:48:36;;;;;;;6.15;5.55;;;22.10;59.70;;;23.27;47.79;97322.31;5044586;28;20044;-60
2023/06/09 09:51:06;;;;;;;6.57;5.97;;;22.30;59.70;;;23.31;47.05;97318.03;5059184;28;20496;-60
2023/06/09 09:53:35;;;;;;;5.88;5.28;;;22.30;58.10;;;23.32;46.80;97314.25;5061587;28;20037;-60
2023/06/09 09:56:03;;;;;;;5.50;4.60;;;22.40;58.00;;;23.37;46.96;97314.31;5063018;28;20040;-63
2023/06/09 09:58:36;;;;;;;5.82;5.05;;;22.40;58.60;;;23.47;47.05;97313.59;5061028;28;20052;-62
2023/06/09 10:01:05;;;;;;;;;;;22.50;58.60;;;23.57;47.12;97305.59;5060425;28;20037;-61
2023/06/09 10:03:35;;;;;;;6.72;5.85;;;22.60;57.10;;;23.63;46.60;97303.75;5061077;28;19920;-61
2023/06/09 10:06:06;;;;;;;6.25;5.55;;;22.60;58.10;;;23.66;46.53;97297.81;5062703;28;20040;-62
2023/06/09 10:08:35;;;;;;;7.38;5.57;;;22.70;58.20;;;23.73;47.04;97303.03;5061444;28;20408;-63
2023/06/09 10:11:03;;;;;;;5.95;5.35;;;22.80;58.70;;;23.81;46.53;97310.81;5058688;28;20032;-62
2023/06/09 10:13:31;;;;;;;5.60;5.03;;;22.80;57.90;;;23.90;45.85;97297.56;5059782;28;20408;-63
2023/06/09 10:15:59;;;;;;;5.72;5.07;;;22.90;57.00;;;24.02;45.70;97298.25;5061582;28;20044;-63
2023/06/09 10:18:27;;;;;;;5.63;5.03;;;23.10;56.70;;;24.15;44.95;97300.53;5062723;28;20045;-63
2023/06/09 10:20:55;;;;;;;6.55;5.10;;;23.20;55.70;;;24.24;44.55;97295.47;5059553;28;20041;-63
2023/06/09 10:23:23;;;;;;;4.72;4.10;;;23.30;55.00;;;24.31;44.05;97293.38;5058599;28;20048;-62
2023/06/09 10:25:51;;;;;;;6.05;4.30;;;23.40;54.40;;;24.43;43.06;97297.78;5063231;28;20052;-63